Ayr, NE (68925)

2:55 PM CST on February 09, 2016 (GMT -0600)
Hastings 2.8 SE | | Change Station
CLOSE
Current Station
Personal Weather Station
Location: Hastings, NE
Elevation: 1906 ft
Nearby Weather Stations

Elev 1906 ft 40.56 °N, 98.35 °W | Updated 10 seconds ago

Overcast
Overcast
27.7 °F
Feels Like 22 °F
N
5.0
Wind Variable Wind from NNE
Gusts 13.0 mph

Today
High -- | Low -- °F
--% Chance of Precip.
Yesterday
High -- | Low -- °F
Precip. -- in
Pressure 30.35 in
Visibility 10.0 miles
Clouds Mostly Cloudy 6000 ft
Windchill 22 °F
Dew Point 15 °F
Humidity 59%
Rainfall 0.00 in
Snow Depth Not available.
7:35 AM 6:01 PM
New Moon, 2% visible
METAR KHSI 092053Z AUTO 36009KT 10SM BKN060 M02/M12 A3026 RMK AO2 SLP275 T10221117 56018
Pressure 30.35 in
Visibility 10.0 miles
Clouds Mostly Cloudy 6000 ft
Windchill 22 °F
Dew Point 15 °F
Humidity 59%
Rainfall 0.00 in
Snow Depth Not available.
7:35 AM 6:01 PM
New Moon, 2% visible
METAR KHSI 092053Z AUTO 36009KT 10SM BKN060 M02/M12 A3026 RMK AO2 SLP275 T10221117 56018

10-Day Weather Forecast

Almanac

Astronomy

Feb. 09, 2016 Rise Set
Actual Time
Civil Twilight
Nautical Twilight
Astronomical Twilight
Moon
Length of Visible Light
Length of Day
Tomorrow will be .
, % of the Moon is Illuminated

Today's Extremes

State Highs State Lows

Community

WunderPhotos

Upload Photos

1,891,683 photos uploaded!

WunderBlog® & News

Nearby

Air Quality

  Air Quality AQ Index Pollutant
Not available.

Snow Depth

Station Depth Elevation

Earthquake Activity

City Distance Mag. Time & Date
Minimum magnitude displayed is 2.5.

Coastal Water Temperatures

Place Temperature

Stations

Nearby Weather Stations

Station Location Temp. Windchill Dew Point Humidity Wind Precip. Elev Updated Type
                   

Watches & Warnings

There are currently no watches in effect.